Time,TemperatureF,DewpointF,PressureIn,WindDirection,WindDirectionDegrees,WindSpeedMPH,WindSpeedGustMPH,Humidity,HourlyPrecipIn,Conditions,Clouds,dailyrainin,SoftwareType,DateUTC
2013-06-11 00:01:00,56.0,25.8,29.99,NNE,19,0.0,1.0,31,0.00,,---,0.00,VWS V13.01,2013-06-11 07:01:00,
2013-06-11 00:31:00,56.5,26.2,29.99,NNE,20,0.0,3.0,31,0.00,,---,0.00,VWS V13.01,2013-06-11 07:31:00,
2013-06-11 01:01:00,57.3,24.5,29.99,NNE,20,0.0,2.0,28,0.00,,---,0.00,VWS V13.01,2013-06-11 08:01:00,
2013-06-11 01:31:00,63.9,23.2,29.94,WNW,285,0.0,7.0,21,0.00,,---,0.00,VWS V13.01,2013-06-11 08:31:00,
2013-06-11 02:01:00,61.3,23.2,29.96,NNE,12,0.0,5.0,23,0.00,,---,0.00,VWS V13.01,2013-06-11 09:01:00,
2013-06-11 02:31:00,63.7,24.2,29.93,SW,234,0.0,5.0,22,0.00,,---,0.00,VWS V13.01,2013-06-11 09:31:00,
2013-06-11 03:01:00,63.4,25.0,29.93,ESE,107,0.0,3.0,23,0.00,,---,0.00,VWS V13.01,2013-06-11 10:01:00,
2013-06-11 03:31:00,64.5,24.8,29.94,ESE,106,4.0,4.0,22,0.00,,---,0.00,VWS V13.01,2013-06-11 10:31:00,
2013-06-11 04:01:00,62.9,24.6,29.96,ENE,72,2.0,6.0,23,0.00,,---,0.00,VWS V13.01,2013-06-11 11:01:00,
2013-06-11 04:31:00,61.3,25.2,29.98,ENE,72,0.0,4.0,25,0.00,,---,0.00,VWS V13.01,2013-06-11 11:31:00,
2013-06-11 05:01:00,63.4,21.7,29.98,ENE,72,0.0,4.0,20,0.00,,---,0.00,VWS V13.01,2013-06-11 12:01:00,
2013-06-11 05:31:00,64.2,21.1,29.99,ENE,72,2.0,5.0,19,0.00,,---,0.00,VWS V13.01,2013-06-11 12:31:00,
2013-06-11 06:01:00,63.9,20.9,30.00,ENE,73,2.0,5.0,19,0.00,,---,0.00,VWS V13.01,2013-06-11 13:01:00,
2013-06-11 06:31:00,62.0,24.8,30.04,ENE,73,0.0,3.0,24,0.00,,---,0.00,VWS V13.01,2013-06-11 13:31:00,
2013-06-11 07:01:00,66.0,30.2,30.03,ENE,73,0.0,2.0,26,0.00,,---,0.00,VWS V13.01,2013-06-11 14:01:00,
2013-06-11 07:31:00,73.9,33.8,30.03,ENE,73,0.0,1.0,23,0.00,,---,0.00,VWS V13.01,2013-06-11 14:31:00,
2013-06-11 08:01:00,79.8,26.4,30.01,NE,52,0.0,4.0,14,0.00,,---,0.00,VWS V13.01,2013-06-11 15:01:00,
2013-06-11 08:31:00,82.0,28.1,30.00,North,0,5.0,5.0,14,0.00,,---,0.00,VWS V13.01,2013-06-11 15:31:00,
2013-06-11 09:01:00,83.8,29.6,29.99,North,0,1.0,7.0,14,0.00,,---,0.00,VWS V13.01,2013-06-11 16:01:00,
2013-06-11 09:31:00,84.5,26.4,29.98,North,10,0.0,9.0,12,0.00,,---,0.00,VWS V13.01,2013-06-11 16:31:00,
2013-06-11 10:01:00,86.3,29.7,29.98,SSE,164,0.0,9.0,13,0.00,,---,0.00,VWS V13.01,2013-06-11 17:01:00,
2013-06-11 10:31:00,87.8,24.5,29.99,SE,135,1.0,10.0,10,0.00,,---,0.00,VWS V13.01,2013-06-11 17:31:00,
2013-06-11 11:01:00,88.2,22.3,30.00,West,280,0.0,10.0,9,0.00,,---,0.00,VWS V13.01,2013-06-11 18:01:00,
2013-06-11 11:31:00,88.8,27.6,30.01,SW,217,3.0,10.0,11,0.00,,---,0.00,VWS V13.01,2013-06-11 18:31:00,
2013-06-11 12:01:00,90.1,28.6,30.00,NW,315,0.0,10.0,11,0.00,,---,0.00,VWS V13.01,2013-06-11 19:01:00,
2013-06-11 12:31:00,88.4,29.4,30.01,SW,220,2.0,11.0,12,0.00,,---,0.00,VWS V13.01,2013-06-11 19:31:00,
2013-06-11 13:01:00,86.5,36.6,30.00,SW,233,4.0,11.0,17,0.00,,---,0.00,VWS V13.01,2013-06-11 20:01:00,
2013-06-11 13:31:00,84.9,40.7,29.98,NE,36,5.0,10.0,21,0.00,,---,0.00,VWS V13.01,2013-06-11 20:31:00,
2013-06-11 14:01:00,85.9,42.7,29.99,NNE,17,0.0,11.0,22,0.00,,---,0.00,VWS V13.01,2013-06-11 21:01:00,
2013-06-11 14:31:00,86.5,42.0,29.95,North,8,3.0,7.0,21,0.00,,---,0.00,VWS V13.01,2013-06-11 21:31:00,
2013-06-11 15:01:00,88.8,45.1,29.94,NE,44,0.0,12.0,22,0.00,,---,0.00,VWS V13.01,2013-06-11 22:01:00,
2013-06-11 15:31:00,83.8,48.2,29.96,North,0,0.0,11.0,29,0.00,,---,0.00,VWS V13.01,2013-06-11 22:31:00,
2013-06-11 16:01:00,84.1,51.1,29.95,North,6,1.0,10.0,32,0.00,,---,0.00,VWS V13.01,2013-06-11 23:01:00,
2013-06-11 16:31:00,85.7,47.9,29.93,North,355,5.0,9.0,27,0.00,,---,0.00,VWS V13.01,2013-06-11 23:31:00,
2013-06-11 17:01:00,84.5,49.7,29.93,North,0,5.0,10.0,30,0.00,,---,0.00,VWS V13.01,2013-06-12 00:01:00,
2013-06-11 17:31:00,81.2,52.5,29.94,NNW,346,3.0,6.0,37,0.00,,---,0.00,VWS V13.01,2013-06-12 00:31:00,
2013-06-11 18:01:00,77.0,54.1,29.96,North,357,4.0,11.0,45,0.00,,---,0.00,VWS V13.01,2013-06-12 01:01:00,
2013-06-11 18:31:00,76.8,54.5,29.95,North,3,0.0,6.0,46,0.00,,---,0.00,VWS V13.01,2013-06-12 01:31:00,
2013-06-11 19:01:00,75.8,54.7,29.95,East,88,0.0,5.0,48,0.00,,---,0.00,VWS V13.01,2013-06-12 02:01:00,
2013-06-11 19:31:00,73.0,54.4,29.91,ENE,77,0.0,1.0,52,0.00,,---,0.00,VWS V13.01,2013-06-12 02:31:00,
2013-06-11 20:01:00,67.9,52.1,29.93,ENE,77,0.0,0.0,57,0.00,,---,0.00,VWS V13.01,2013-06-12 03:01:00,
2013-06-11 20:31:00,62.4,45.1,29.95,ENE,77,0.0,1.0,53,0.00,,---,0.00,VWS V13.01,2013-06-12 03:31:00,
2013-06-11 21:01:00,58.9,47.6,29.98,ENE,77,0.0,0.0,66,0.00,,---,0.00,VWS V13.01,2013-06-12 04:01:00,
2013-06-11 21:31:00,56.3,43.9,29.99,ENE,77,0.0,0.0,63,0.00,,---,0.00,VWS V13.01,2013-06-12 04:31:00,
2013-06-11 22:01:00,56.5,39.1,30.00,ENE,77,0.0,0.0,52,0.00,,---,0.00,VWS V13.01,2013-06-12 05:01:00,
2013-06-11 22:31:00,55.6,35.7,29.99,ENE,77,0.0,0.0,47,0.00,,---,0.00,VWS V13.01,2013-06-12 05:31:00,
2013-06-11 23:01:00,54.7,36.4,29.99,ENE,77,0.0,0.0,50,0.00,,---,0.00,VWS V13.01,2013-06-12 06:01:00,
2013-06-11 23:31:00,53.3,37.1,29.98,ENE,77,0.0,0.0,54,0.00,,---,0.00,VWS V13.01,2013-06-12 06:31:00,